Time;durP1;ratioP1;P1;durP2;ratioP2;P2;SDS_P1;SDS_P2;PMS_P1;PMS_P2;Temp;Humidity;BMP_temperature;BMP_pressure;BME280_temperature;BME280_humidity;BME280_pressure;Samples;Min_cycle;Max_cycle;Signal;HPM_P1;HPM_P2
2022/01/23 00:00:19;;;;;;;4.50;4.10;;;16.30;88.30;;;;;;5095260;28;20601;-15
2022/01/23 00:02:47;;;;;;;4.70;4.20;;;16.30;88.20;;;;;;5077028;28;20195;-16
2022/01/23 00:05:13;;;;;;;4.20;3.80;;;16.30;88.10;;;;;;5094881;28;20171;-16
2022/01/23 00:07:41;;;;;;;4.83;4.10;;;16.30;88.00;;;;;;5077265;28;20262;-15
2022/01/23 00:10:09;;;;;;;4.50;4.10;;;16.30;88.00;;;;;;5076847;28;20464;-17
2022/01/23 00:12:43;;;;;;;4.63;4.23;;;16.30;88.00;;;;;;5076878;28;20183;-15
2022/01/23 00:17:54;;;;;;;4.40;4.00;;;16.30;88.30;;;;;;5095727;28;20174;-16
2022/01/23 00:20:19;;;;;;;4.60;4.20;;;16.30;88.40;;;;;;5076280;28;20180;-17
2022/01/23 00:22:49;;;;;;;5.07;4.57;;;16.40;88.50;;;;;;5077684;28;20229;-15
2022/01/23 00:30:46;;;;;;;4.37;3.97;;;16.40;88.50;;;;;;5094659;28;20260;-15
2022/01/23 00:33:13;;;;;;;5.53;4.40;;;16.40;88.50;;;;;;5076999;28;20332;-16
2022/01/23 00:35:41;;;;;;;5.00;4.30;;;16.40;88.50;;;;;;5094938;28;20170;-15
2022/01/23 00:38:08;;;;;;;4.83;4.43;;;16.40;88.60;;;;;;5076300;28;20168;-15
2022/01/23 00:40:35;;;;;;;4.83;4.30;;;16.40;88.50;;;;;;5076989;28;20431;-16
2022/01/23 00:43:06;;;;;;;5.13;4.23;;;16.40;88.50;;;;;;5095246;28;20533;-15
2022/01/23 00:45:34;;;;;;;5.70;4.30;;;16.40;88.60;;;;;;5094603;28;20459;-19
2022/01/23 00:48:07;;;;;;;4.80;4.40;;;16.40;88.50;;;;;;5076969;28;20208;-16
2022/01/23 00:50:38;;;;;;;5.03;4.40;;;16.40;89.20;;;;;;5094913;28;20202;-15
2022/01/23 00:53:10;;;;;;;5.07;4.57;;;16.40;88.70;;;;;;5072030;28;20171;-19
2022/01/23 00:55:38;;;;;;;5.20;4.70;;;16.40;88.70;;;;;;5077763;28;20182;-16
2022/01/23 00:58:04;;;;;;;5.20;4.70;;;16.40;88.60;;;;;;5076806;28;20178;-17
2022/01/23 01:00:30;;;;;;;4.80;4.30;;;16.40;88.80;;;;;;5094340;28;20175;-18
2022/01/23 01:02:55;;;;;;;4.93;4.33;;;16.40;88.70;;;;;;5076124;28;20202;-15
2022/01/23 01:05:21;;;;;;;4.63;4.17;;;16.40;88.80;;;;;;5094857;28;20211;-17
2022/01/23 01:07:47;;;;;;;5.67;4.30;;;16.40;88.80;;;;;;5077782;28;20175;-17
2022/01/23 01:10:21;;;;;;;4.93;4.40;;;16.40;89.40;;;;;;5094075;28;20180;-17
2022/01/23 01:12:50;;;;;;;5.33;4.60;;;16.40;89.40;;;;;;5092574;28;20177;-17
2022/01/23 01:31:37;;;;;;;4.60;4.20;;;16.30;88.90;;;;;;5094085;28;20228;-15
2022/01/23 01:34:09;;;;;;;5.07;4.57;;;16.30;89.00;;;;;;5094162;28;20167;-17
2022/01/23 01:36:49;;;;;;;4.80;4.30;;;16.40;89.10;;;;;;5076688;28;20166;-16
2022/01/23 01:39:35;;;;;;;4.73;4.33;;;16.30;88.90;;;;;;5077081;28;20536;-15
2022/01/23 01:42:00;;;;;;;5.03;4.10;;;16.30;88.90;;;;;;5091018;28;20167;-15
2022/01/23 01:44:27;;;;;;;5.37;4.67;;;16.30;88.90;;;;;;5094546;28;20235;-16
2022/01/23 01:46:53;;;;;;;4.60;4.20;;;16.30;88.90;;;;;;5076770;28;20676;-17
2022/01/23 01:49:26;;;;;;;4.70;4.30;;;16.30;88.90;;;;;;5093951;28;20202;-17
2022/01/23 01:51:54;;;;;;;4.47;4.07;;;16.30;89.00;;;;;;5076924;28;20238;-16
2022/01/23 01:54:21;;;;;;;5.07;4.57;;;16.30;88.90;;;;;;5076958;28;20228;-15
2022/01/23 01:56:52;;;;;;;4.77;4.37;;;16.30;88.90;;;;;;5077087;28;20171;-16
2022/01/23 02:10:06;;;;;;;4.63;4.23;;;16.30;88.80;;;;;;5093935;28;20198;-16
2022/01/23 02:13:03;;;;;;;4.93;4.43;;;16.30;88.90;;;;;;5094482;28;20270;-15
2022/01/23 02:18:30;;;;;;;4.70;4.10;;;16.30;88.80;;;;;;5098522;28;20169;-15
2022/01/23 02:24:05;;;;;;;4.73;4.13;;;16.30;88.70;;;;;;5098236;28;20193;-16
2022/01/23 02:56:46;;;;;;;4.40;4.00;;;16.50;86.90;;;;;;5097862;28;20165;-17
2022/01/23 02:59:36;;;;;;;4.27;3.83;;;16.50;86.70;;;;;;5097282;28;20164;-15
2022/01/23 03:04:47;;;;;;;6.10;3.77;;;16.50;86.40;;;;;;5096048;28;20449;-15
2022/01/23 03:07:30;;;;;;;4.50;4.10;;;16.50;86.20;;;;;;5079926;28;20268;-17
2022/01/23 03:10:04;;;;;;;3.97;3.63;;;16.50;86.10;;;;;;5097806;28;20451;-16
2022/01/23 03:15:10;;;;;;;4.20;3.80;;;16.50;86.10;;;;;;5097485;28;20156;-15
2022/01/23 03:26:39;;;;;;;5.57;3.87;;;16.60;85.70;;;;;;5097979;28;20200;-16
2022/01/23 03:31:42;;;;;;;4.30;3.90;;;16.60;85.60;;;;;;5097166;28;20226;-15
2022/01/23 03:34:09;;;;;;;3.90;3.60;;;16.50;85.50;;;;;;5097052;28;20168;-16
2022/01/23 03:36:36;;;;;;;3.77;3.47;;;16.60;85.60;;;;;;5096732;28;20171;-15
2022/01/23 03:39:06;;;;;;;4.00;3.70;;;16.60;85.50;;;;;;5079325;28;20209;-16
2022/01/23 03:41:34;;;;;;;3.57;3.27;;;16.60;85.40;;;;;;5079259;28;20586;-16
2022/01/23 03:44:01;;;;;;;3.80;3.40;;;16.60;85.40;;;;;;5096733;28;20459;-16
2022/01/23 03:49:31;;;;;;;3.57;3.27;;;16.60;85.30;;;;;;5096801;28;20231;-17
2022/01/23 03:52:04;;;;;;;3.93;3.63;;;16.60;85.40;;;;;;5096428;28;20205;-17
2022/01/23 03:54:30;;;;;;;4.03;3.63;;;16.60;85.40;;;;;;5096676;28;20455;-16
2022/01/23 03:56:58;;;;;;;5.60;3.63;;;16.60;85.40;;;;;;5096723;28;20440;-17
2022/01/23 03:59:24;;;;;;;4.33;3.60;;;16.50;85.40;;;;;;5097205;28;20163;-16
2022/01/23 04:01:49;;;;;;;4.20;3.83;;;16.50;85.30;;;;;;5096569;28;20542;-15
2022/01/23 04:04:57;;;;;;;3.90;3.50;;;16.60;85.30;;;;;;5096349;28;20204;-15
2022/01/23 04:07:18;;;;;;;3.97;3.67;;;16.50;85.30;;;;;;5085468;28;20184;-15
2022/01/23 04:09:44;;;;;;;4.00;3.60;;;16.50;85.30;;;;;;5078409;28;20173;-15
2022/01/23 04:12:23;;;;;;;4.13;3.73;;;16.50;85.20;;;;;;5096491;28;20210;-17
2022/01/23 04:14:56;;;;;;;3.73;3.40;;;16.50;85.20;;;;;;5078082;28;20293;-15
2022/01/23 04:21:01;;;;;;;4.27;3.30;;;16.50;85.20;;;;;;5096097;28;20194;-15
2022/01/23 04:33:59;;;;;;;3.77;3.47;;;16.50;85.30;;;;;;5095870;28;20247;-15
2022/01/23 05:01:07;;;;;;;3.70;3.40;;;16.40;85.20;;;;;;5095182;28;20475;-17
2022/01/23 05:06:26;;;;;;;3.43;3.13;;;16.30;85.30;;;;;;5095453;28;20190;-16
2022/01/23 05:08:52;;;;;;;3.80;3.20;;;16.30;85.30;;;;;;5077399;28;20211;-16
2022/01/23 05:11:19;;;;;;;3.50;3.20;;;16.30;85.50;;;;;;5077421;28;20208;-17
2022/01/23 05:13:45;;;;;;;3.60;3.30;;;16.30;85.60;;;;;;5077475;28;20171;-16
2022/01/23 05:16:11;;;;;;;3.60;3.30;;;16.30;85.90;;;;;;5095662;28;20448;-15
2022/01/23 05:18:38;;;;;;;3.70;3.40;;;16.20;85.90;;;;;;5095874;28;20223;-17
2022/01/23 05:23:40;;;;;;;3.30;3.00;;;16.20;86.20;;;;;;5095321;28;20261;-15
2022/01/23 05:26:06;;;;;;;3.20;2.90;;;16.20;86.30;;;;;;5078815;28;20274;-17
2022/01/23 05:28:32;;;;;;;3.90;3.50;;;16.10;86.40;;;;;;5077808;28;20184;-15
2022/01/23 05:30:57;;;;;;;3.60;3.20;;;16.10;86.50;;;;;;5095621;28;20199;-15
2022/01/23 05:33:23;;;;;;;3.60;3.30;;;16.10;86.70;;;;;;5078302;28;20210;-16
2022/01/23 05:35:49;;;;;;;4.33;3.50;;;16.10;86.70;;;;;;5076670;28;20194;-15
2022/01/23 05:38:15;;;;;;;4.10;3.70;;;16.00;86.70;;;;;;5076237;28;20173;-15
2022/01/23 05:40:42;;;;;;;3.67;3.37;;;16.00;86.80;;;;;;5094906;28;20175;-18
2022/01/23 05:43:08;;;;;;;4.00;3.37;;;16.00;86.90;;;;;;5094162;28;20270;-15
2022/01/23 05:45:37;;;;;;;3.70;3.40;;;16.00;87.10;;;;;;5077200;28;20351;-15
2022/01/23 05:48:03;;;;;;;3.67;3.33;;;16.20;86.40;;;;;;5076772;28;20268;-17
2022/01/23 05:50:29;;;;;;;3.20;2.90;;;17.10;79.80;;;;;;5080229;28;20641;-17
2022/01/23 05:52:55;;;;;;;3.87;3.00;;;18.00;72.10;;;;;;5099618;28;20167;-16
2022/01/23 05:55:21;;;;;;;3.20;2.90;;;19.00;64.30;;;;;;5081702;28;20180;-16
2022/01/23 05:57:47;;;;;;;3.17;2.87;;;19.80;59.30;;;;;;5081502;28;20183;-16
2022/01/23 06:00:13;;;;;;;3.03;2.73;;;20.50;56.90;;;;;;5098956;28;20170;-17
2022/01/23 06:02:39;;;;;;;2.67;2.47;;;20.90;55.20;;;;;;5098662;28;20159;-15
2022/01/23 06:05:05;;;;;;;2.83;2.63;;;21.20;54.20;;;;;;5098429;28;20565;-17
2022/01/23 06:07:31;;;;;;;2.70;2.50;;;21.30;53.70;;;;;;5099130;28;20170;-16
2022/01/23 06:09:57;;;;;;;2.97;2.77;;;21.30;53.50;;;;;;5098665;28;20171;-16
2022/01/23 06:12:22;;;;;;;3.20;2.90;;;21.10;53.50;;;;;;5081392;28;20210;-17
2022/01/23 06:14:48;;;;;;;2.90;2.70;;;20.90;53.90;;;;;;5097949;28;20167;-16
2022/01/23 06:17:14;;;;;;;3.07;2.87;;;20.70;54.30;;;;;;5098146;28;20433;-18
2022/01/23 06:19:42;;;;;;;2.60;2.40;;;20.30;54.90;;;;;;5080358;28;20200;-16
2022/01/23 06:22:08;;;;;;;2.80;2.60;;;20.00;55.70;;;;;;5080464;28;20333;-16
2022/01/23 06:24:36;;;;;;;3.03;2.73;;;19.80;56.40;;;;;;5098541;28;20557;-17
2022/01/23 06:27:02;;;;;;;2.90;2.70;;;19.60;57.30;;;;;;5097360;28;20576;-17
2022/01/23 06:29:30;;;;;;;3.30;3.00;;;19.30;58.30;;;;;;5097387;28;20227;-15
2022/01/23 06:31:58;;;;;;;2.80;2.60;;;19.10;59.20;;;;;;5080940;28;20218;-16
2022/01/23 06:34:24;;;;;;;3.07;2.73;;;18.80;60.20;;;;;;5080989;28;20176;-18
2022/01/23 06:36:52;;;;;;;2.90;2.70;;;18.70;61.70;;;;;;5098384;28;20179;-17
2022/01/23 06:39:19;;;;;;;3.20;2.90;;;18.50;63.20;;;;;;5098161;28;20183;-18
2022/01/23 06:41:45;;;;;;;3.03;2.73;;;18.30;65.00;;;;;;5080451;28;20479;-16
2022/01/23 06:44:11;;;;;;;3.00;2.70;;;18.10;66.50;;;;;;5097448;28;20563;-16
2022/01/23 06:46:39;;;;;;;3.13;2.83;;;17.90;68.10;;;;;;5080289;28;20177;-19
2022/01/23 06:49:06;;;;;;;2.60;2.40;;;17.80;69.50;;;;;;5078810;28;20189;-17
2022/01/23 06:51:32;;;;;;;2.90;2.70;;;17.60;70.60;;;;;;5097329;28;20211;-18
2022/01/23 06:53:59;;;;;;;2.90;2.70;;;17.50;71.70;;;;;;5097370;28;20397;-19
2022/01/23 06:56:25;;;;;;;2.80;2.60;;;17.40;72.50;;;;;;5079673;28;20178;-17
2022/01/23 06:58:51;;;;;;;3.00;2.70;;;17.30;73.30;;;;;;5097827;28;20572;-15
2022/01/23 07:01:16;;;;;;;2.87;2.60;;;17.30;74.40;;;;;;5097473;28;20175;-15
2022/01/23 07:03:42;;;;;;;3.10;2.80;;;17.20;75.20;;;;;;5097994;28;20180;-15
2022/01/23 07:06:08;;;;;;;2.90;2.70;;;17.10;75.80;;;;;;5097624;28;20181;-18
2022/01/23 07:08:35;;;;;;;3.00;2.70;;;17.00;76.40;;;;;;5079840;28;20433;-16
2022/01/23 07:11:02;;;;;;;2.87;2.63;;;16.90;76.90;;;;;;5097014;28;20285;-20
2022/01/23 07:13:27;;;;;;;3.17;2.87;;;16.90;77.50;;;;;;5097125;28;20184;-15
2022/01/23 07:15:53;;;;;;;3.37;3.07;;;16.80;77.90;;;;;;5078559;28;20185;-18
2022/01/23 07:18:19;;;;;;;3.30;3.00;;;16.80;78.40;;;;;;5078770;28;20208;-16
2022/01/23 07:20:47;;;;;;;3.40;3.10;;;16.70;78.80;;;;;;5096885;28;20301;-16
2022/01/23 07:23:14;;;;;;;2.97;2.77;;;16.70;79.20;;;;;;5079003;28;20227;-16
2022/01/23 07:25:42;;;;;;;2.90;2.70;;;16.60;79.60;;;;;;5079137;28;20175;-15
2022/01/23 07:28:14;;;;;;;3.07;2.67;;;16.60;79.90;;;;;;5079228;28;20208;-15
2022/01/23 07:30:48;;;;;;;2.70;2.50;;;16.60;80.30;;;;;;5095886;28;20245;-15
2022/01/23 07:33:13;;;;;;;3.00;2.70;;;16.60;80.50;;;;;;5096625;28;20219;-16
2022/01/23 07:35:39;;;;;;;3.30;2.70;;;16.60;80.40;;;;;;5078497;28;20208;-15
2022/01/23 07:38:05;;;;;;;2.73;2.53;;;16.70;79.50;;;;;;5095049;28;20202;-15
2022/01/23 07:40:31;;;;;;;2.60;2.40;;;17.00;77.50;;;;;;5077323;28;20549;-17
2022/01/23 07:42:56;;;;;;;2.53;2.33;;;17.30;75.10;;;;;;5077919;28;20176;-16
2022/01/23 07:45:22;;;;;;;3.20;2.90;;;17.70;71.40;;;;;;5077157;28;20177;-16
2022/01/23 07:47:48;;;;;;;2.73;2.53;;;18.10;68.00;;;;;;5096089;28;20176;-18
2022/01/23 07:50:14;;;;;;;2.90;2.60;;;18.40;64.60;;;;;;5078695;28;20178;-17
2022/01/23 07:52:40;;;;;;;2.83;2.60;;;18.60;63.20;;;;;;5095961;28;20433;-16
2022/01/23 07:55:09;;;;;;;2.83;2.63;;;18.70;62.00;;;;;;5078274;28;20176;-16
2022/01/23 07:57:36;;;;;;;3.10;2.80;;;18.80;61.10;;;;;;5095456;28;20172;-15
2022/01/23 08:00:07;;;;;;;3.50;2.50;;;19.00;59.70;;;;;;5095555;28;20257;-16
2022/01/23 08:02:33;;;;;;;3.00;2.80;;;19.10;59.30;;;;;;5090419;28;20455;-15
2022/01/23 08:04:59;;;;;;;3.00;2.77;;;18.90;59.80;;;;;;5096168;28;20544;-16
2022/01/23 08:09:56;;;;;;;2.87;2.60;;;18.40;62.50;;;;;;5094038;28;20177;-15
2022/01/23 08:12:32;;;;;;;3.20;2.93;;;18.20;64.30;;;;;;5075753;28;20210;-16
2022/01/23 08:14:59;;;;;;;2.60;2.40;;;18.00;66.10;;;;;;5076505;28;20171;-17
2022/01/23 08:17:26;;;;;;;3.20;2.70;;;17.80;68.00;;;;;;5094578;28;20174;-16
2022/01/23 08:19:57;;;;;;;3.00;2.80;;;17.60;69.60;;;;;;5094943;28;20195;-15
2022/01/23 08:22:25;;;;;;;2.90;2.70;;;17.40;71.20;;;;;;5076934;28;20178;-16
2022/01/23 08:24:54;;;;;;;2.90;2.60;;;17.30;72.50;;;;;;5094518;28;20181;-16
2022/01/23 08:27:19;;;;;;;3.30;3.00;;;17.20;73.70;;;;;;5076721;28;20265;-17
2022/01/23 08:29:46;;;;;;;2.80;2.60;;;17.10;74.50;;;;;;5094698;28;20526;-16
2022/01/23 08:32:11;;;;;;;3.20;2.90;;;17.00;75.30;;;;;;5094536;28;20248;-16
2022/01/23 08:34:39;;;;;;;2.83;2.63;;;16.90;76.10;;;;;;5095027;28;20207;-15
2022/01/23 08:37:06;;;;;;;3.03;2.73;;;16.80;76.70;;;;;;5077096;28;20195;-16
2022/01/23 08:39:35;;;;;;;3.17;2.90;;;16.80;77.20;;;;;;5093547;28;20165;-17
2022/01/23 08:42:06;;;;;;;3.60;3.30;;;16.70;77.80;;;;;;5076733;28;20179;-15
2022/01/23 08:44:32;;;;;;;3.20;2.90;;;16.70;78.20;;;;;;5076064;28;20561;-16
2022/01/23 08:46:58;;;;;;;2.90;2.70;;;16.60;78.60;;;;;;5077232;28;20554;-18
2022/01/23 08:49:27;;;;;;;2.83;2.63;;;16.60;79.10;;;;;;5059845;28;20179;-17
2022/01/23 08:51:55;;;;;;;3.40;3.10;;;16.50;79.40;;;;;;5075602;28;20785;-15
2022/01/23 08:54:22;;;;;;;3.00;2.80;;;16.50;79.60;;;;;;5073323;28;20167;-17
2022/01/23 08:56:48;;;;;;;3.30;3.00;;;16.50;79.80;;;;;;5093146;28;20177;-16
2022/01/23 08:59:14;;;;;;;3.30;3.00;;;16.50;80.00;;;;;;5075424;28;20173;-17
2022/01/23 09:01:40;;;;;;;3.37;3.07;;;16.50;80.10;;;;;;5092863;28;20502;-17
2022/01/23 09:04:07;;;;;;;3.33;3.03;;;16.50;79.80;;;;;;5074397;28;20188;-17
2022/01/23 09:06:33;;;;;;;3.33;3.03;;;16.60;79.20;;;;;;5092436;28;20177;-17
2022/01/23 09:09:00;;;;;;;3.53;3.20;;;16.80;78.10;;;;;;5092548;28;20587;-17
2022/01/23 09:16:30;;;;;;;3.50;3.20;;;17.60;70.60;;;;;;5092887;28;20207;-16
2022/01/23 09:18:56;;;;;;;4.80;2.70;;;17.60;70.10;;;;;;5058649;28;20177;-15
2022/01/23 09:21:22;;;;;;;3.27;2.97;;;17.60;70.40;;;;;;5074237;28;20187;-15
2022/01/23 09:23:49;;;;;;;3.87;3.20;;;17.50;70.60;;;;;;5075261;28;20603;-16
2022/01/23 09:26:18;;;;;;;3.07;2.77;;;17.50;71.20;;;;;;5092740;28;20172;-16
2022/01/23 09:28:45;;;;;;;3.40;3.10;;;17.50;71.70;;;;;;5073898;28;20401;-16
2022/01/23 09:31:13;;;;;;;3.20;2.93;;;17.40;72.40;;;;;;5057607;28;20211;-15
2022/01/23 09:33:39;;;;;;;3.17;2.97;;;17.20;73.40;;;;;;5092141;28;20164;-15
2022/01/23 09:36:05;;;;;;;2.87;2.67;;;17.20;74.40;;;;;;5092621;28;20187;-15
2022/01/23 09:38:33;;;;;;;3.20;2.90;;;17.10;75.30;;;;;;5074361;28;20227;-16
2022/01/23 09:41:00;;;;;;;3.50;3.20;;;17.00;76.20;;;;;;5091658;28;20176;-16
2022/01/23 09:43:29;;;;;;;3.40;3.10;;;16.90;77.00;;;;;;5092188;28;20507;-19
2022/01/23 09:45:55;;;;;;;3.30;3.00;;;16.90;77.70;;;;;;5092925;28;20241;-18
2022/01/23 09:48:22;;;;;;;3.70;3.40;;;16.80;78.20;;;;;;5073631;28;20628;-15
2022/01/23 09:50:49;;;;;;;5.00;3.10;;;16.70;78.60;;;;;;5074931;28;20216;-16
2022/01/23 09:53:16;;;;;;;3.40;3.10;;;16.70;79.00;;;;;;5074110;28;20179;-15
2022/01/23 09:55:45;;;;;;;3.20;2.90;;;16.60;79.30;;;;;;5073537;28;20166;-16
2022/01/23 09:58:14;;;;;;;3.50;3.20;;;16.60;79.70;;;;;;5092097;28;20308;-18
2022/01/23 10:00:41;;;;;;;4.27;3.40;;;16.60;80.20;;;;;;5098880;22;20206;-17
2022/01/23 10:03:09;;;;;;;5.47;3.10;;;16.50;80.70;;;;;;5074248;28;20207;-16
2022/01/23 10:05:37;;;;;;;5.03;3.50;;;16.50;81.00;;;;;;5091705;28;20271;-16
2022/01/23 10:08:03;;;;;;;4.50;3.60;;;16.50;81.40;;;;;;5092790;28;20172;-18
2022/01/23 10:10:32;;;;;;;3.90;3.30;;;16.50;82.00;;;;;;5073989;28;20428;-16
2022/01/23 10:13:00;;;;;;;4.73;3.23;;;16.50;82.30;;;;;;5092062;28;20196;-16
2022/01/23 10:15:28;;;;;;;3.63;3.30;;;16.40;82.60;;;;;;5091886;28;20199;-15
2022/01/23 10:17:55;;;;;;;5.13;3.37;;;16.40;83.20;;;;;;5091824;28;20168;-15
2022/01/23 10:20:21;;;;;;;7.40;3.63;;;16.40;83.60;;;;;;5092154;28;20169;-15
2022/01/23 10:22:50;;;;;;;3.70;3.37;;;16.40;84.00;;;;;;5074360;28;20237;-16
2022/01/23 10:25:20;;;;;;;4.10;3.57;;;16.40;84.10;;;;;;5072956;28;20622;-16
2022/01/23 10:28:11;;;;;;;5.90;3.87;;;16.40;84.50;;;;;;5074511;28;20174;-15
2022/01/23 10:30:44;;;;;;;8.97;4.40;;;16.30;84.60;;;;;;5091408;28;20260;-16
2022/01/23 10:33:14;;;;;;;4.17;3.77;;;16.30;85.00;;;;;;5074254;28;20270;-16
2022/01/23 10:35:58;;;;;;;4.97;4.10;;;16.30;85.20;;;;;;5073610;28;20173;-16
2022/01/23 10:38:45;;;;;;;6.40;4.10;;;16.30;85.20;;;;;;5095978;28;20162;-15
2022/01/23 10:46:41;;;;;;;6.27;4.47;;;18.40;68.70;;;;;;5094950;28;20181;-16
2022/01/23 10:49:07;;;;;;;5.40;4.40;;;19.10;63.30;;;;;;5093370;28;20170;-16
2022/01/23 10:51:37;;;;;;;5.53;4.03;;;19.50;60.30;;;;;;5094737;28;20204;-16
2022/01/23 10:54:20;;;;;;;5.40;4.03;;;19.60;59.40;;;;;;5095198;28;20163;-16
2022/01/23 10:57:01;;;;;;;5.03;4.10;;;19.70;58.90;;;;;;5076997;28;20178;-17
2022/01/23 10:59:44;;;;;;;5.13;4.30;;;19.80;58.70;;;;;;5095398;28;20463;-16
2022/01/23 11:02:12;;;;;;;4.30;3.80;;;19.60;58.90;;;;;;5093673;28;20252;-15
2022/01/23 11:05:01;;;;;;;7.03;4.27;;;19.50;59.50;;;;;;5097896;28;20509;-19
2022/01/23 11:07:29;;;;;;;5.67;4.23;;;19.20;61.10;;;;;;5095086;28;20163;-15
2022/01/23 11:10:11;;;;;;;6.00;4.37;;;19.00;62.70;;;;;;5094777;28;20575;-15
2022/01/23 11:17:58;;;;;;;11.10;6.73;;;18.50;79.70;;;;;;5094945;28;20188;-17
2022/01/23 11:20:31;;;;;;;10.37;7.20;;;18.40;81.70;;;;;;5094686;28;20640;-16
2022/01/23 11:23:15;;;;;;;15.70;7.40;;;18.30;81.60;;;;;;5077195;28;20176;-16
2022/01/23 11:25:51;;;;;;;11.80;7.33;;;18.20;81.70;;;;;;5095079;28;20496;-16
2022/01/23 11:28:18;;;;;;;12.30;8.03;;;18.10;82.10;;;;;;5094499;28;20170;-15
2022/01/23 11:30:46;;;;;;;14.50;7.77;;;18.10;86.80;;;;;;5077037;28;20633;-16
2022/01/23 11:33:16;;;;;;;13.07;8.10;;;18.00;84.80;;;;;;5077059;28;20232;-17
2022/01/23 11:35:42;;;;;;;11.67;7.10;;;17.90;84.70;;;;;;5094237;28;20174;-16
2022/01/23 11:38:17;;;;;;;12.73;7.60;;;17.80;85.00;;;;;;5093478;28;20228;-15
2022/01/23 11:54:43;;;;;;;17.53;8.60;;;17.60;88.40;;;;;;5093643;28;20198;-15
2022/01/23 11:57:37;;;;;;;23.33;9.43;;;17.50;89.40;;;;;;5076866;28;20176;-16
2022/01/23 12:00:17;;;;;;;15.10;8.97;;;17.50;90.70;;;;;;5075033;28;20167;-16
2022/01/23 12:02:44;;;;;;;18.13;8.67;;;17.50;90.90;;;;;;5094399;28;20535;-17
2022/01/23 12:05:15;;;;;;;15.87;8.67;;;17.50;91.10;;;;;;5093870;28;20170;-17
2022/01/23 12:07:42;;;;;;;16.93;8.97;;;17.50;91.00;;;;;;5093674;28;20486;-18
2022/01/23 12:10:32;;;;;;;20.10;9.47;;;17.40;90.80;;;;;;5093051;28;20185;-18
2022/01/23 12:13:54;;;;;;;26.70;9.30;;;17.40;90.70;;;;;;5093188;28;20164;-16
2022/01/23 12:16:25;;;;;;;22.67;8.90;;;17.40;90.50;;;;;;5093134;28;20505;-16
2022/01/23 12:19:12;;;;;;;24.03;9.07;;;17.40;90.40;;;;;;5092715;28;20169;-15
2022/01/23 12:21:38;;;;;;;18.27;9.33;;;17.30;90.40;;;;;;5092545;28;20197;-18
2022/01/23 12:24:08;;;;;;;15.57;8.57;;;17.40;90.40;;;;;;5074508;28;20211;-16
2022/01/23 12:26:34;;;;;;;21.90;8.83;;;17.30;90.40;;;;;;5092225;28;20170;-15
2022/01/23 12:29:18;;;;;;;19.47;9.00;;;17.30;91.00;;;;;;5092344;28;20298;-17
2022/01/23 12:31:46;;;;;;;25.33;8.70;;;17.40;91.90;;;;;;5091737;28;20194;-16
2022/01/23 12:34:12;;;;;;;17.33;7.97;;;17.50;91.40;;;;;;5091266;28;20554;-18
2022/01/23 12:36:43;;;;;;;20.63;8.10;;;17.40;91.10;;;;;;5091842;28;20203;-17
2022/01/23 12:39:09;;;;;;;22.33;9.03;;;17.30;90.90;;;;;;5074728;28;20171;-17
2022/01/23 12:41:57;;;;;;;18.93;7.97;;;17.30;90.90;;;;;;5093134;28;20178;-17
2022/01/23 12:44:22;;;;;;;15.87;8.33;;;17.20;90.90;;;;;;5073644;28;20582;-17
2022/01/23 12:46:51;;;;;;;16.07;8.10;;;17.20;91.00;;;;;;5074467;28;20569;-16
2022/01/23 12:49:26;;;;;;;14.70;7.93;;;17.20;91.20;;;;;;5091908;28;20200;-15
2022/01/23 12:52:13;;;;;;;14.63;7.50;;;17.10;91.00;;;;;;5085071;28;20212;-18
2022/01/23 12:54:51;;;;;;;15.37;7.43;;;17.10;91.10;;;;;;5072484;28;20166;-16
2022/01/23 12:57:37;;;;;;;14.67;7.50;;;17.10;91.00;;;;;;5094847;28;20291;-15
2022/01/23 13:00:22;;;;;;;12.67;7.67;;;17.10;91.00;;;;;;5080676;28;20257;-15
2022/01/23 13:02:53;;;;;;;9.30;7.10;;;17.10;91.00;;;;;;5097012;28;20538;-18
2022/01/23 13:05:19;;;;;;;11.40;7.13;;;17.10;91.10;;;;;;5094413;28;20166;-16
2022/01/23 13:10:49;;;;;;;11.40;7.33;;;17.10;91.10;;;;;;5090837;28;20179;-15
2022/01/23 13:13:57;;;;;;;11.30;6.97;;;17.00;91.10;;;;;;5091328;28;20179;-17
2022/01/23 13:18:48;;;;;;;14.03;7.40;;;17.00;91.00;;;;;;5091008;28;20193;-16
2022/01/23 13:27:26;;;;;;;10.60;6.60;;;17.10;90.70;;;;;;5090838;28;20576;-16
2022/01/23 13:32:45;;;;;;;10.57;6.73;;;17.30;90.00;;;;;;5062790;28;20524;-18
2022/01/23 13:35:15;;;;;;;12.30;6.00;;;17.40;89.50;;;;;;5091024;28;20380;-16
2022/01/23 13:37:47;;;;;;;11.90;6.37;;;17.40;89.00;;;;;;5091259;28;20606;-17
2022/01/23 13:40:23;;;;;;;10.90;6.40;;;17.50;88.30;;;;;;5090246;28;20259;-17
2022/01/23 13:59:51;;;;;;;9.07;5.90;;;17.20;88.30;;;;;;5091130;28;20171;-16
2022/01/23 14:02:33;;;;;;;9.37;5.83;;;17.20;88.50;;;;;;5073942;28;20197;-15
2022/01/23 14:05:18;;;;;;;9.30;6.00;;;17.10;88.70;;;;;;5073557;28;20221;-15
2022/01/23 14:07:54;;;;;;;7.33;5.60;;;17.10;89.30;;;;;;5091795;28;20451;-15
2022/01/23 14:10:28;;;;;;;7.33;5.57;;;17.10;88.80;;;;;;5073080;28;20269;-15
2022/01/23 14:13:03;;;;;;;8.70;5.77;;;17.00;89.00;;;;;;5077610;28;20294;-16
2022/01/23 14:15:29;;;;;;;7.60;5.87;;;17.00;89.10;;;;;;5094440;28;20161;-17
2022/01/23 14:18:20;;;;;;;9.57;5.70;;;17.00;89.40;;;;;;5076378;28;20167;-15
2022/01/23 14:20:57;;;;;;;10.93;5.40;;;16.90;89.50;;;;;;5078039;28;20174;-15
2022/01/23 14:23:22;;;;;;;9.80;5.50;;;16.90;89.70;;;;;;5094939;28;20555;-15
2022/01/23 14:25:51;;;;;;;9.20;6.07;;;16.90;89.90;;;;;;5075601;28;20168;-15
2022/01/23 14:28:23;;;;;;;5.80;5.17;;;16.80;89.90;;;;;;5074740;28;20485;-16
2022/01/23 14:30:55;;;;;;;8.67;5.17;;;16.90;90.00;;;;;;5077426;28;20179;-16
2022/01/23 14:33:33;;;;;;;9.33;5.33;;;16.80;90.00;;;;;;5088848;28;20172;-15
2022/01/23 14:36:11;;;;;;;7.17;5.23;;;16.80;90.10;;;;;;5076421;28;20173;-15
2022/01/23 14:38:38;;;;;;;6.53;5.10;;;16.80;90.10;;;;;;5074775;28;20206;-18
2022/01/23 14:41:09;;;;;;;7.43;5.17;;;16.80;90.10;;;;;;5075974;28;20356;-15
2022/01/23 14:43:40;;;;;;;10.13;5.20;;;16.80;90.20;;;;;;5076189;28;20505;-17
2022/01/23 14:46:09;;;;;;;7.57;5.30;;;16.80;90.20;;;;;;5095156;28;20244;-15
2022/01/23 14:48:40;;;;;;;7.33;4.83;;;16.80;90.20;;;;;;5094495;28;20172;-16
2022/01/23 14:51:07;;;;;;;8.93;5.20;;;16.70;90.20;;;;;;5094646;28;20498;-17
2022/01/23 14:53:35;;;;;;;6.13;4.40;;;16.70;90.20;;;;;;5076529;28;20178;-16
2022/01/23 14:56:04;;;;;;;7.33;4.90;;;16.70;90.20;;;;;;5075944;28;20172;-17
2022/01/23 14:58:31;;;;;;;8.90;4.70;;;16.70;90.20;;;;;;5093656;28;20464;-17
2022/01/23 15:00:58;;;;;;;6.77;4.63;;;16.70;90.20;;;;;;5092069;28;20300;-16
2022/01/23 15:03:26;;;;;;;5.23;4.57;;;16.70;90.20;;;;;;5093433;28;20548;-15
2022/01/23 15:05:52;;;;;;;4.80;4.20;;;16.70;90.20;;;;;;5094133;28;20176;-15
2022/01/23 15:08:24;;;;;;;5.07;4.57;;;16.70;90.20;;;;;;5094037;28;20236;-16
2022/01/23 15:10:52;;;;;;;6.53;4.17;;;16.70;90.20;;;;;;5093806;28;20171;-16
2022/01/23 15:13:22;;;;;;;5.97;4.43;;;16.70;90.30;;;;;;5074878;28;20198;-15
2022/01/23 15:15:50;;;;;;;5.47;4.70;;;16.70;90.10;;;;;;5092009;28;20181;-15
2022/01/23 15:18:20;;;;;;;5.53;4.77;;;16.80;90.10;;;;;;5092590;28;20561;-15
2022/01/23 15:20:46;;;;;;;4.90;4.40;;;16.90;89.40;;;;;;5093341;28;20180;-17
2022/01/23 15:23:13;;;;;;;6.30;4.40;;;17.10;88.30;;;;;;5073874;28;20181;-15
2022/01/23 15:25:41;;;;;;;4.80;4.30;;;17.20;86.80;;;;;;5074739;28;20178;-17
2022/01/23 15:28:08;;;;;;;5.90;4.07;;;17.50;84.60;;;;;;5074846;28;20586;-15
2022/01/23 15:30:36;;;;;;;4.90;4.37;;;17.70;82.90;;;;;;5092903;28;20227;-17
2022/01/23 15:33:03;;;;;;;5.30;4.67;;;17.70;82.10;;;;;;5093300;28;20357;-16
2022/01/23 15:35:30;;;;;;;4.67;4.10;;;17.70;81.60;;;;;;5092907;28;20184;-16
2022/01/23 15:37:57;;;;;;;4.73;4.10;;;17.70;81.70;;;;;;5092997;28;20203;-17
2022/01/23 15:40:24;;;;;;;4.77;3.97;;;17.60;82.10;;;;;;5093717;28;20177;-17
2022/01/23 15:42:52;;;;;;;4.87;4.00;;;17.60;82.80;;;;;;5074506;28;20577;-15
2022/01/23 15:45:19;;;;;;;4.60;4.20;;;17.50;83.50;;;;;;5075034;28;20176;-15
2022/01/23 15:47:46;;;;;;;6.50;4.33;;;17.40;84.10;;;;;;5093057;28;20175;-16
2022/01/23 15:50:15;;;;;;;4.63;4.17;;;17.30;84.60;;;;;;5096564;28;20263;-16
2022/01/23 15:52:43;;;;;;;4.90;3.93;;;17.30;85.20;;;;;;5092576;28;20377;-15
2022/01/23 15:55:10;;;;;;;4.77;4.00;;;17.20;85.50;;;;;;5092991;28;20183;-17
2022/01/23 15:57:38;;;;;;;5.10;3.93;;;17.10;85.90;;;;;;5092975;28;20437;-17
2022/01/23 16:00:06;;;;;;;4.30;3.80;;;17.10;86.30;;;;;;5092980;28;20409;-16
2022/01/23 16:02:31;;;;;;;4.40;4.00;;;17.00;86.60;;;;;;5073874;28;20710;-16
2022/01/23 16:04:59;;;;;;;4.73;3.80;;;17.00;87.10;;;;;;5092116;28;20262;-17
2022/01/23 16:07:25;;;;;;;4.37;3.80;;;16.90;87.30;;;;;;5075534;28;20278;-15
2022/01/23 16:09:51;;;;;;;4.07;3.60;;;16.90;87.80;;;;;;5072441;28;20203;-15
2022/01/23 16:12:18;;;;;;;4.47;3.67;;;16.90;88.00;;;;;;5087306;28;20201;-16
2022/01/23 16:14:44;;;;;;;4.37;3.97;;;16.80;88.40;;;;;;5073524;28;20267;-18
2022/01/23 16:17:09;;;;;;;4.10;3.60;;;16.80;88.90;;;;;;5090718;28;20204;-15